sensor_id;sensor_type;location;lat;lon;timestamp;P1;durP1;ratioP1;P2;durP2;ratioP2
10645;SDS011;5371;49.782;9.932;2024-02-23T00:02:15;0.77;;;0.57;;
10645;SDS011;5371;49.782;9.932;2024-02-23T00:04:41;0.90;;;0.40;;
10645;SDS011;5371;49.782;9.932;2024-02-23T00:07:10;1.87;;;0.50;;
10645;SDS011;5371;49.782;9.932;2024-02-23T00:09:37;0.70;;;0.60;;
10645;SDS011;5371;49.782;9.932;2024-02-23T00:12:04;1.43;;;0.50;;
10645;SDS011;5371;49.782;9.932;2024-02-23T00:14:31;0.87;;;0.53;;
10645;SDS011;5371;49.782;9.932;2024-02-23T00:17:02;1.07;;;0.60;;
10645;SDS011;5371;49.782;9.932;2024-02-23T00:19:29;2.07;;;0.50;;
10645;SDS011;5371;49.782;9.932;2024-02-23T00:21:57;1.70;;;0.50;;
10645;SDS011;5371;49.782;9.932;2024-02-23T00:24:24;2.07;;;0.60;;
10645;SDS011;5371;49.782;9.932;2024-02-23T00:26:51;0.60;;;0.50;;
10645;SDS011;5371;49.782;9.932;2024-02-23T00:29:18;2.50;;;0.70;;
10645;SDS011;5371;49.782;9.932;2024-02-23T00:31:45;0.57;;;0.50;;
10645;SDS011;5371;49.782;9.932;2024-02-23T00:34:13;1.73;;;0.73;;
10645;SDS011;5371;49.782;9.932;2024-02-23T00:36:40;0.90;;;0.70;;
10645;SDS011;5371;49.782;9.932;2024-02-23T00:39:10;1.00;;;0.80;;
10645;SDS011;5371;49.782;9.932;2024-02-23T00:41:37;1.40;;;0.53;;
10645;SDS011;5371;49.782;9.932;2024-02-23T00:44:04;0.93;;;0.70;;
10645;SDS011;5371;49.782;9.932;2024-02-23T00:46:31;1.07;;;0.50;;
10645;SDS011;5371;49.782;9.932;2024-02-23T00:48:58;1.17;;;0.60;;
10645;SDS011;5371;49.782;9.932;2024-02-23T00:51:26;1.90;;;0.70;;
10645;SDS011;5371;49.782;9.932;2024-02-23T00:53:53;1.77;;;0.73;;
10645;SDS011;5371;49.782;9.932;2024-02-23T00:56:20;1.03;;;0.73;;
10645;SDS011;5371;49.782;9.932;2024-02-23T00:58:47;2.30;;;0.50;;
10645;SDS011;5371;49.782;9.932;2024-02-23T01:01:14;0.80;;;0.50;;
10645;SDS011;5371;49.782;9.932;2024-02-23T01:03:41;2.90;;;0.70;;
10645;SDS011;5371;49.782;9.932;2024-02-23T01:06:08;1.87;;;0.60;;
10645;SDS011;5371;49.782;9.932;2024-02-23T01:08:37;1.63;;;0.70;;
10645;SDS011;5371;49.782;9.932;2024-02-23T01:11:05;2.67;;;0.70;;
10645;SDS011;5371;49.782;9.932;2024-02-23T01:13:32;1.57;;;0.70;;
10645;SDS011;5371;49.782;9.932;2024-02-23T01:15:59;0.73;;;0.50;;
10645;SDS011;5371;49.782;9.932;2024-02-23T01:18:26;1.87;;;0.70;;
10645;SDS011;5371;49.782;9.932;2024-02-23T01:20:53;3.20;;;0.60;;
10645;SDS011;5371;49.782;9.932;2024-02-23T01:23:20;1.43;;;0.80;;
10645;SDS011;5371;49.782;9.932;2024-02-23T01:25:48;3.33;;;0.70;;
10645;SDS011;5371;49.782;9.932;2024-02-23T01:28:15;2.90;;;0.77;;
10645;SDS011;5371;49.782;9.932;2024-02-23T01:30:42;0.60;;;0.50;;
10645;SDS011;5371;49.782;9.932;2024-02-23T01:33:09;1.50;;;0.70;;
10645;SDS011;5371;49.782;9.932;2024-02-23T01:35:36;2.80;;;0.80;;
10645;SDS011;5371;49.782;9.932;2024-02-23T01:38:03;1.43;;;0.70;;
10645;SDS011;5371;49.782;9.932;2024-02-23T01:40:30;2.23;;;0.80;;
10645;SDS011;5371;49.782;9.932;2024-02-23T01:43:02;1.90;;;0.70;;
10645;SDS011;5371;49.782;9.932;2024-02-23T01:45:29;2.23;;;0.67;;
10645;SDS011;5371;49.782;9.932;2024-02-23T01:47:56;1.53;;;0.57;;
10645;SDS011;5371;49.782;9.932;2024-02-23T01:50:23;1.43;;;0.50;;
10645;SDS011;5371;49.782;9.932;2024-02-23T01:52:50;2.87;;;0.73;;
10645;SDS011;5371;49.782;9.932;2024-02-23T01:55:18;2.63;;;0.70;;
10645;SDS011;5371;49.782;9.932;2024-02-23T01:57:47;1.50;;;0.70;;
10645;SDS011;5371;49.782;9.932;2024-02-23T02:00:17;1.30;;;0.60;;
10645;SDS011;5371;49.782;9.932;2024-02-23T02:02:52;1.70;;;0.63;;
10645;SDS011;5371;49.782;9.932;2024-02-23T02:05:20;3.93;;;0.80;;
10645;SDS011;5371;49.782;9.932;2024-02-23T02:07:47;3.33;;;0.83;;
10645;SDS011;5371;49.782;9.932;2024-02-23T02:10:14;2.43;;;1.00;;
10645;SDS011;5371;49.782;9.932;2024-02-23T02:12:41;0.80;;;0.50;;
10645;SDS011;5371;49.782;9.932;2024-02-23T02:15:08;1.30;;;0.70;;
10645;SDS011;5371;49.782;9.932;2024-02-23T02:17:36;1.93;;;0.80;;
10645;SDS011;5371;49.782;9.932;2024-02-23T02:20:03;1.70;;;0.80;;
10645;SDS011;5371;49.782;9.932;2024-02-23T02:22:31;2.47;;;0.80;;
10645;SDS011;5371;49.782;9.932;2024-02-23T02:24:59;1.73;;;0.80;;
10645;SDS011;5371;49.782;9.932;2024-02-23T02:27:26;1.80;;;0.70;;
10645;SDS011;5371;49.782;9.932;2024-02-23T02:29:53;2.43;;;0.70;;
10645;SDS011;5371;49.782;9.932;2024-02-23T02:32:20;1.60;;;0.77;;
10645;SDS011;5371;49.782;9.932;2024-02-23T02:34:48;1.43;;;0.50;;
10645;SDS011;5371;49.782;9.932;2024-02-23T02:37:15;2.93;;;0.90;;
10645;SDS011;5371;49.782;9.932;2024-02-23T02:39:42;3.03;;;0.80;;
10645;SDS011;5371;49.782;9.932;2024-02-23T02:42:09;2.50;;;0.80;;
10645;SDS011;5371;49.782;9.932;2024-02-23T02:44:36;1.00;;;0.60;;
10645;SDS011;5371;49.782;9.932;2024-02-23T02:47:03;3.80;;;0.83;;
10645;SDS011;5371;49.782;9.932;2024-02-23T02:49:30;1.20;;;0.67;;
10645;SDS011;5371;49.782;9.932;2024-02-23T02:51:58;1.20;;;0.70;;
10645;SDS011;5371;49.782;9.932;2024-02-23T02:54:25;2.70;;;1.00;;
10645;SDS011;5371;49.782;9.932;2024-02-23T02:56:52;2.50;;;0.90;;
10645;SDS011;5371;49.782;9.932;2024-02-23T02:59:20;1.23;;;0.57;;
10645;SDS011;5371;49.782;9.932;2024-02-23T03:01:47;1.93;;;0.80;;
10645;SDS011;5371;49.782;9.932;2024-02-23T03:04:14;2.30;;;0.80;;
10645;SDS011;5371;49.782;9.932;2024-02-23T03:06:41;2.73;;;0.70;;
10645;SDS011;5371;49.782;9.932;2024-02-23T03:09:09;2.47;;;0.70;;
10645;SDS011;5371;49.782;9.932;2024-02-23T03:11:36;3.97;;;0.87;;
10645;SDS011;5371;49.782;9.932;2024-02-23T03:14:03;2.03;;;0.80;;
10645;SDS011;5371;49.782;9.932;2024-02-23T03:16:30;1.83;;;0.80;;
10645;SDS011;5371;49.782;9.932;2024-02-23T03:18:59;1.93;;;0.60;;
10645;SDS011;5371;49.782;9.932;2024-02-23T03:21:26;0.83;;;0.40;;
10645;SDS011;5371;49.782;9.932;2024-02-23T03:23:53;0.80;;;0.40;;
10645;SDS011;5371;49.782;9.932;2024-02-23T03:26:21;0.90;;;0.40;;
10645;SDS011;5371;49.782;9.932;2024-02-23T03:28:48;1.47;;;0.50;;
10645;SDS011;5371;49.782;9.932;2024-02-23T03:31:15;0.73;;;0.50;;
10645;SDS011;5371;49.782;9.932;2024-02-23T03:33:42;0.80;;;0.43;;
10645;SDS011;5371;49.782;9.932;2024-02-23T03:36:08;3.37;;;0.77;;
10645;SDS011;5371;49.782;9.932;2024-02-23T03:38:35;2.97;;;0.57;;
10645;SDS011;5371;49.782;9.932;2024-02-23T03:41:02;0.87;;;0.53;;
10645;SDS011;5371;49.782;9.932;2024-02-23T03:43:31;2.23;;;0.90;;
10645;SDS011;5371;49.782;9.932;2024-02-23T03:45:59;1.63;;;0.60;;
10645;SDS011;5371;49.782;9.932;2024-02-23T03:48:26;2.33;;;0.80;;
10645;SDS011;5371;49.782;9.932;2024-02-23T03:50:52;1.73;;;0.60;;
10645;SDS011;5371;49.782;9.932;2024-02-23T03:53:19;2.57;;;0.70;;
10645;SDS011;5371;49.782;9.932;2024-02-23T03:55:47;3.87;;;0.73;;
10645;SDS011;5371;49.782;9.932;2024-02-23T03:58:14;4.63;;;0.90;;
10645;SDS011;5371;49.782;9.932;2024-02-23T04:00:43;4.50;;;0.90;;
10645;SDS011;5371;49.782;9.932;2024-02-23T04:03:10;1.93;;;0.70;;
10645;SDS011;5371;49.782;9.932;2024-02-23T04:05:37;2.07;;;0.90;;
10645;SDS011;5371;49.782;9.932;2024-02-23T04:08:04;3.03;;;0.73;;
10645;SDS011;5371;49.782;9.932;2024-02-23T04:10:31;3.33;;;0.70;;
10645;SDS011;5371;49.782;9.932;2024-02-23T04:12:58;4.83;;;0.90;;
10645;SDS011;5371;49.782;9.932;2024-02-23T04:15:25;3.73;;;0.70;;
10645;SDS011;5371;49.782;9.932;2024-02-23T04:17:53;3.53;;;0.83;;
10645;SDS011;5371;49.782;9.932;2024-02-23T04:20:20;6.90;;;1.00;;
10645;SDS011;5371;49.782;9.932;2024-02-23T04:22:47;1.83;;;0.60;;
10645;SDS011;5371;49.782;9.932;2024-02-23T04:25:14;4.30;;;0.70;;
10645;SDS011;5371;49.782;9.932;2024-02-23T04:27:41;2.50;;;0.70;;
10645;SDS011;5371;49.782;9.932;2024-02-23T04:30:09;2.97;;;0.67;;
10645;SDS011;5371;49.782;9.932;2024-02-23T04:32:37;2.80;;;0.80;;
10645;SDS011;5371;49.782;9.932;2024-02-23T04:35:07;2.10;;;0.70;;
10645;SDS011;5371;49.782;9.932;2024-02-23T04:37:34;1.07;;;0.60;;
10645;SDS011;5371;49.782;9.932;2024-02-23T04:40:02;2.70;;;0.60;;
10645;SDS011;5371;49.782;9.932;2024-02-23T04:42:29;1.90;;;0.50;;
10645;SDS011;5371;49.782;9.932;2024-02-23T04:44:56;3.10;;;0.80;;
10645;SDS011;5371;49.782;9.932;2024-02-23T04:47:23;2.57;;;0.70;;
10645;SDS011;5371;49.782;9.932;2024-02-23T04:49:50;2.90;;;0.80;;
10645;SDS011;5371;49.782;9.932;2024-02-23T04:52:18;2.87;;;0.83;;
10645;SDS011;5371;49.782;9.932;2024-02-23T04:54:45;2.27;;;0.90;;
10645;SDS011;5371;49.782;9.932;2024-02-23T04:57:12;2.83;;;0.90;;
10645;SDS011;5371;49.782;9.932;2024-02-23T04:59:39;3.60;;;0.90;;
10645;SDS011;5371;49.782;9.932;2024-02-23T05:02:06;3.13;;;0.80;;
10645;SDS011;5371;49.782;9.932;2024-02-23T05:04:33;2.03;;;0.63;;
10645;SDS011;5371;49.782;9.932;2024-02-23T05:07:00;2.93;;;0.90;;
10645;SDS011;5371;49.782;9.932;2024-02-23T05:09:28;3.00;;;0.70;;
10645;SDS011;5371;49.782;9.932;2024-02-23T05:11:55;2.50;;;0.80;;
10645;SDS011;5371;49.782;9.932;2024-02-23T05:14:22;3.37;;;0.70;;
10645;SDS011;5371;49.782;9.932;2024-02-23T05:16:49;1.67;;;0.70;;
10645;SDS011;5371;49.782;9.932;2024-02-23T05:19:16;1.07;;;0.60;;
10645;SDS011;5371;49.782;9.932;2024-02-23T05:21:43;6.30;;;1.20;;
10645;SDS011;5371;49.782;9.932;2024-02-23T05:24:10;1.97;;;0.90;;
10645;SDS011;5371;49.782;9.932;2024-02-23T05:26:39;4.07;;;0.90;;
10645;SDS011;5371;49.782;9.932;2024-02-23T05:29:07;1.97;;;0.60;;
10645;SDS011;5371;49.782;9.932;2024-02-23T05:31:44;3.90;;;0.80;;
10645;SDS011;5371;49.782;9.932;2024-02-23T05:34:12;1.73;;;0.73;;
10645;SDS011;5371;49.782;9.932;2024-02-23T05:36:39;1.77;;;0.90;;
10645;SDS011;5371;49.782;9.932;2024-02-23T05:39:06;1.33;;;0.70;;
10645;SDS011;5371;49.782;9.932;2024-02-23T05:41:35;2.57;;;0.87;;
10645;SDS011;5371;49.782;9.932;2024-02-23T05:44:04;2.50;;;0.90;;
10645;SDS011;5371;49.782;9.932;2024-02-23T05:46:32;4.00;;;1.00;;
10645;SDS011;5371;49.782;9.932;2024-02-23T05:48:59;3.77;;;0.90;;
10645;SDS011;5371;49.782;9.932;2024-02-23T05:51:26;1.77;;;0.93;;
10645;SDS011;5371;49.782;9.932;2024-02-23T05:53:54;1.47;;;0.90;;
10645;SDS011;5371;49.782;9.932;2024-02-23T05:56:21;2.47;;;0.70;;
10645;SDS011;5371;49.782;9.932;2024-02-23T05:58:49;2.40;;;0.93;;
10645;SDS011;5371;49.782;9.932;2024-02-23T06:01:17;1.97;;;0.70;;
10645;SDS011;5371;49.782;9.932;2024-02-23T06:03:44;1.97;;;0.73;;
10645;SDS011;5371;49.782;9.932;2024-02-23T06:06:12;2.30;;;0.90;;
10645;SDS011;5371;49.782;9.932;2024-02-23T06:08:39;3.80;;;0.90;;
10645;SDS011;5371;49.782;9.932;2024-02-23T06:11:06;1.43;;;0.57;;
10645;SDS011;5371;49.782;9.932;2024-02-23T06:13:36;2.67;;;0.90;;
10645;SDS011;5371;49.782;9.932;2024-02-23T06:16:01;4.43;;;0.93;;
10645;SDS011;5371;49.782;9.932;2024-02-23T06:18:30;2.83;;;1.00;;
10645;SDS011;5371;49.782;9.932;2024-02-23T06:20:57;2.00;;;0.90;;
10645;SDS011;5371;49.782;9.932;2024-02-23T06:23:26;2.27;;;0.90;;
10645;SDS011;5371;49.782;9.932;2024-02-23T06:25:54;3.47;;;0.93;;
10645;SDS011;5371;49.782;9.932;2024-02-23T06:28:21;2.33;;;1.03;;
10645;SDS011;5371;49.782;9.932;2024-02-23T06:30:48;3.40;;;1.10;;
10645;SDS011;5371;49.782;9.932;2024-02-23T06:33:15;4.70;;;1.10;;
10645;SDS011;5371;49.782;9.932;2024-02-23T06:35:43;1.87;;;1.00;;
10645;SDS011;5371;49.782;9.932;2024-02-23T06:38:11;2.57;;;1.10;;
10645;SDS011;5371;49.782;9.932;2024-02-23T06:40:38;2.33;;;0.80;;
10645;SDS011;5371;49.782;9.932;2024-02-23T06:43:06;3.27;;;1.20;;
10645;SDS011;5371;49.782;9.932;2024-02-23T06:45:33;2.87;;;0.80;;
10645;SDS011;5371;49.782;9.932;2024-02-23T06:47:59;3.87;;;1.33;;
10645;SDS011;5371;49.782;9.932;2024-02-23T06:50:27;2.33;;;1.03;;
10645;SDS011;5371;49.782;9.932;2024-02-23T06:52:56;3.63;;;2.10;;
10645;SDS011;5371;49.782;9.932;2024-02-23T06:55:23;2.70;;;1.20;;
10645;SDS011;5371;49.782;9.932;2024-02-23T06:57:50;3.77;;;1.10;;
10645;SDS011;5371;49.782;9.932;2024-02-23T07:00:17;1.40;;;0.80;;
10645;SDS011;5371;49.782;9.932;2024-02-23T07:02:44;3.60;;;1.10;;
10645;SDS011;5371;49.782;9.932;2024-02-23T07:05:11;3.37;;;1.20;;
10645;SDS011;5371;49.782;9.932;2024-02-23T07:07:39;3.17;;;1.27;;
10645;SDS011;5371;49.782;9.932;2024-02-23T07:10:08;4.87;;;1.23;;
10645;SDS011;5371;49.782;9.932;2024-02-23T07:12:37;3.73;;;1.20;;
10645;SDS011;5371;49.782;9.932;2024-02-23T07:15:04;2.93;;;1.20;;
10645;SDS011;5371;49.782;9.932;2024-02-23T07:17:32;2.17;;;1.30;;
10645;SDS011;5371;49.782;9.932;2024-02-23T07:20:01;4.73;;;1.40;;
10645;SDS011;5371;49.782;9.932;2024-02-23T07:22:31;3.73;;;1.50;;
10645;SDS011;5371;49.782;9.932;2024-02-23T07:24:58;3.73;;;1.50;;
10645;SDS011;5371;49.782;9.932;2024-02-23T07:27:28;2.83;;;1.10;;
10645;SDS011;5371;49.782;9.932;2024-02-23T07:29:55;6.33;;;2.10;;
10645;SDS011;5371;49.782;9.932;2024-02-23T07:32:22;4.00;;;1.30;;
10645;SDS011;5371;49.782;9.932;2024-02-23T07:34:50;4.70;;;1.40;;
10645;SDS011;5371;49.782;9.932;2024-02-23T07:37:17;5.60;;;1.63;;
10645;SDS011;5371;49.782;9.932;2024-02-23T07:39:44;5.27;;;1.37;;
10645;SDS011;5371;49.782;9.932;2024-02-23T07:42:11;2.67;;;1.27;;
10645;SDS011;5371;49.782;9.932;2024-02-23T07:44:41;3.60;;;1.37;;
10645;SDS011;5371;49.782;9.932;2024-02-23T07:47:09;6.70;;;1.73;;
10645;SDS011;5371;49.782;9.932;2024-02-23T07:49:43;5.87;;;1.40;;
10645;SDS011;5371;49.782;9.932;2024-02-23T07:52:10;6.57;;;1.50;;
10645;SDS011;5371;49.782;9.932;2024-02-23T07:54:37;5.40;;;1.73;;
10645;SDS011;5371;49.782;9.932;2024-02-23T07:57:04;5.57;;;1.33;;
10645;SDS011;5371;49.782;9.932;2024-02-23T07:59:31;2.57;;;1.20;;
10645;SDS011;5371;49.782;9.932;2024-02-23T08:01:59;5.13;;;1.50;;
10645;SDS011;5371;49.782;9.932;2024-02-23T08:04:26;4.10;;;1.30;;
10645;SDS011;5371;49.782;9.932;2024-02-23T08:06:53;2.30;;;1.07;;
10645;SDS011;5371;49.782;9.932;2024-02-23T08:09:20;3.23;;;1.10;;
10645;SDS011;5371;49.782;9.932;2024-02-23T08:11:49;2.43;;;1.13;;
10645;SDS011;5371;49.782;9.932;2024-02-23T08:14:16;6.17;;;1.50;;
10645;SDS011;5371;49.782;9.932;2024-02-23T08:16:43;2.47;;;1.00;;
10645;SDS011;5371;49.782;9.932;2024-02-23T08:19:12;3.87;;;1.03;;
10645;SDS011;5371;49.782;9.932;2024-02-23T08:21:39;6.27;;;1.53;;
10645;SDS011;5371;49.782;9.932;2024-02-23T08:24:06;6.70;;;1.20;;
10645;SDS011;5371;49.782;9.932;2024-02-23T08:26:33;2.97;;;0.90;;
10645;SDS011;5371;49.782;9.932;2024-02-23T08:29:00;3.03;;;1.00;;
10645;SDS011;5371;49.782;9.932;2024-02-23T08:31:28;3.43;;;0.80;;
10645;SDS011;5371;49.782;9.932;2024-02-23T08:33:55;1.43;;;1.03;;
10645;SDS011;5371;49.782;9.932;2024-02-23T08:36:23;3.37;;;1.00;;
10645;SDS011;5371;49.782;9.932;2024-02-23T08:38:50;3.23;;;1.00;;
10645;SDS011;5371;49.782;9.932;2024-02-23T08:41:17;4.13;;;0.97;;
10645;SDS011;5371;49.782;9.932;2024-02-23T08:43:44;2.73;;;1.03;;
10645;SDS011;5371;49.782;9.932;2024-02-23T08:46:11;4.47;;;1.20;;
10645;SDS011;5371;49.782;9.932;2024-02-23T08:48:38;3.40;;;1.07;;
10645;SDS011;5371;49.782;9.932;2024-02-23T08:51:05;6.20;;;1.53;;
10645;SDS011;5371;49.782;9.932;2024-02-23T08:53:33;3.40;;;0.90;;
10645;SDS011;5371;49.782;9.932;2024-02-23T08:56:06;3.77;;;0.70;;
10645;SDS011;5371;49.782;9.932;2024-02-23T08:58:33;3.60;;;1.20;;
10645;SDS011;5371;49.782;9.932;2024-02-23T09:01:00;2.97;;;0.90;;
10645;SDS011;5371;49.782;9.932;2024-02-23T09:03:30;3.20;;;1.03;;
10645;SDS011;5371;49.782;9.932;2024-02-23T09:05:58;3.20;;;0.83;;
10645;SDS011;5371;49.782;9.932;2024-02-23T09:08:25;2.33;;;0.90;;
10645;SDS011;5371;49.782;9.932;2024-02-23T09:10:53;6.90;;;1.10;;
10645;SDS011;5371;49.782;9.932;2024-02-23T09:13:20;3.77;;;1.30;;
10645;SDS011;5371;49.782;9.932;2024-02-23T09:15:48;3.10;;;1.03;;
10645;SDS011;5371;49.782;9.932;2024-02-23T09:18:15;3.37;;;1.20;;
10645;SDS011;5371;49.782;9.932;2024-02-23T09:20:48;3.90;;;1.00;;
10645;SDS011;5371;49.782;9.932;2024-02-23T09:23:19;3.07;;;1.20;;
10645;SDS011;5371;49.782;9.932;2024-02-23T09:25:46;2.63;;;0.80;;
10645;SDS011;5371;49.782;9.932;2024-02-23T09:28:14;4.00;;;1.13;;
10645;SDS011;5371;49.782;9.932;2024-02-23T09:30:41;2.40;;;1.00;;
10645;SDS011;5371;49.782;9.932;2024-02-23T09:33:08;4.37;;;1.17;;
10645;SDS011;5371;49.782;9.932;2024-02-23T09:35:35;3.80;;;0.80;;
10645;SDS011;5371;49.782;9.932;2024-02-23T09:38:02;4.30;;;1.13;;
10645;SDS011;5371;49.782;9.932;2024-02-23T09:40:29;4.77;;;1.20;;
10645;SDS011;5371;49.782;9.932;2024-02-23T09:42:57;4.50;;;1.10;;
10645;SDS011;5371;49.782;9.932;2024-02-23T09:45:26;6.40;;;1.20;;
10645;SDS011;5371;49.782;9.932;2024-02-23T09:47:55;2.00;;;0.93;;
10645;SDS011;5371;49.782;9.932;2024-02-23T09:50:24;3.10;;;1.03;;
10645;SDS011;5371;49.782;9.932;2024-02-23T09:52:51;4.77;;;1.00;;
10645;SDS011;5371;49.782;9.932;2024-02-23T09:55:18;3.67;;;0.90;;
10645;SDS011;5371;49.782;9.932;2024-02-23T09:57:47;4.43;;;1.07;;
10645;SDS011;5371;49.782;9.932;2024-02-23T10:00:17;6.03;;;1.50;;
10645;SDS011;5371;49.782;9.932;2024-02-23T10:02:45;2.53;;;1.00;;
10645;SDS011;5371;49.782;9.932;2024-02-23T10:05:15;5.60;;;1.03;;
10645;SDS011;5371;49.782;9.932;2024-02-23T10:07:43;5.03;;;1.20;;
10645;SDS011;5371;49.782;9.932;2024-02-23T10:10:12;2.80;;;1.07;;
10645;SDS011;5371;49.782;9.932;2024-02-23T10:12:39;3.80;;;1.03;;
10645;SDS011;5371;49.782;9.932;2024-02-23T10:15:06;3.63;;;1.13;;
10645;SDS011;5371;49.782;9.932;2024-02-23T10:17:34;7.77;;;1.40;;
10645;SDS011;5371;49.782;9.932;2024-02-23T10:20:03;6.67;;;1.07;;
10645;SDS011;5371;49.782;9.932;2024-02-23T10:22:30;2.80;;;0.90;;
10645;SDS011;5371;49.782;9.932;2024-02-23T10:24:57;3.77;;;1.10;;
10645;SDS011;5371;49.782;9.932;2024-02-23T10:27:24;3.03;;;1.20;;
10645;SDS011;5371;49.782;9.932;2024-02-23T10:29:51;4.40;;;1.13;;
10645;SDS011;5371;49.782;9.932;2024-02-23T10:32:19;3.13;;;1.10;;
10645;SDS011;5371;49.782;9.932;2024-02-23T10:34:47;3.73;;;1.20;;
10645;SDS011;5371;49.782;9.932;2024-02-23T10:37:16;4.53;;;1.33;;
10645;SDS011;5371;49.782;9.932;2024-02-23T10:39:43;5.23;;;1.20;;
10645;SDS011;5371;49.782;9.932;2024-02-23T10:42:12;5.10;;;1.00;;
10645;SDS011;5371;49.782;9.932;2024-02-23T10:44:39;3.53;;;0.80;;
10645;SDS011;5371;49.782;9.932;2024-02-23T10:47:07;2.03;;;0.80;;
10645;SDS011;5371;49.782;9.932;2024-02-23T10:49:34;4.67;;;1.33;;
10645;SDS011;5371;49.782;9.932;2024-02-23T10:52:03;3.90;;;0.90;;
10645;SDS011;5371;49.782;9.932;2024-02-23T10:54:32;3.90;;;1.10;;
10645;SDS011;5371;49.782;9.932;2024-02-23T10:56:59;2.00;;;1.00;;
10645;SDS011;5371;49.782;9.932;2024-02-23T10:59:27;3.77;;;0.93;;
10645;SDS011;5371;49.782;9.932;2024-02-23T11:01:54;2.70;;;1.10;;
10645;SDS011;5371;49.782;9.932;2024-02-23T11:04:24;4.23;;;1.10;;
10645;SDS011;5371;49.782;9.932;2024-02-23T11:06:52;3.63;;;1.20;;
10645;SDS011;5371;49.782;9.932;2024-02-23T11:09:20;4.40;;;1.10;;
10645;SDS011;5371;49.782;9.932;2024-02-23T11:11:53;3.77;;;1.07;;
10645;SDS011;5371;49.782;9.932;2024-02-23T11:14:30;2.37;;;1.10;;
10645;SDS011;5371;49.782;9.932;2024-02-23T11:16:58;4.40;;;1.00;;
10645;SDS011;5371;49.782;9.932;2024-02-23T11:19:31;3.07;;;1.13;;
10645;SDS011;5371;49.782;9.932;2024-02-23T11:21:59;3.23;;;1.10;;
10645;SDS011;5371;49.782;9.932;2024-02-23T11:24:28;1.67;;;0.80;;
10645;SDS011;5371;49.782;9.932;2024-02-23T11:26:57;4.57;;;0.90;;
10645;SDS011;5371;49.782;9.932;2024-02-23T11:29:25;5.77;;;1.00;;
10645;SDS011;5371;49.782;9.932;2024-02-23T11:31:54;2.50;;;1.07;;
10645;SDS011;5371;49.782;9.932;2024-02-23T11:34:26;3.57;;;1.10;;
10645;SDS011;5371;49.782;9.932;2024-02-23T11:36:53;1.67;;;0.83;;
10645;SDS011;5371;49.782;9.932;2024-02-23T11:39:21;3.70;;;1.20;;
10645;SDS011;5371;49.782;9.932;2024-02-23T11:41:49;1.90;;;1.00;;
10645;SDS011;5371;49.782;9.932;2024-02-23T11:44:17;3.07;;;1.00;;
10645;SDS011;5371;49.782;9.932;2024-02-23T11:46:44;2.73;;;1.20;;
10645;SDS011;5371;49.782;9.932;2024-02-23T11:49:13;5.53;;;1.00;;
10645;SDS011;5371;49.782;9.932;2024-02-23T11:51:40;2.53;;;1.00;;
10645;SDS011;5371;49.782;9.932;2024-02-23T11:54:07;3.27;;;1.13;;
10645;SDS011;5371;49.782;9.932;2024-02-23T11:56:35;3.23;;;0.90;;
10645;SDS011;5371;49.782;9.932;2024-02-23T11:59:02;1.80;;;0.80;;
10645;SDS011;5371;49.782;9.932;2024-02-23T12:01:30;3.90;;;0.97;;
10645;SDS011;5371;49.782;9.932;2024-02-23T12:03:58;4.27;;;1.20;;
10645;SDS011;5371;49.782;9.932;2024-02-23T12:06:24;2.13;;;0.90;;
10645;SDS011;5371;49.782;9.932;2024-02-23T12:08:55;5.40;;;1.00;;
10645;SDS011;5371;49.782;9.932;2024-02-23T12:11:23;3.27;;;1.10;;
10645;SDS011;5371;49.782;9.932;2024-02-23T12:13:50;2.50;;;1.10;;
10645;SDS011;5371;49.782;9.932;2024-02-23T12:16:17;4.80;;;0.93;;
10645;SDS011;5371;49.782;9.932;2024-02-23T12:18:45;5.17;;;1.13;;
10645;SDS011;5371;49.782;9.932;2024-02-23T12:21:19;2.63;;;0.80;;
10645;SDS011;5371;49.782;9.932;2024-02-23T12:23:48;2.27;;;0.90;;
10645;SDS011;5371;49.782;9.932;2024-02-23T12:26:15;4.07;;;0.93;;
10645;SDS011;5371;49.782;9.932;2024-02-23T12:28:43;1.87;;;0.97;;
10645;SDS011;5371;49.782;9.932;2024-02-23T12:31:11;3.03;;;1.27;;
10645;SDS011;5371;49.782;9.932;2024-02-23T12:33:38;2.77;;;1.03;;
10645;SDS011;5371;49.782;9.932;2024-02-23T12:36:08;2.47;;;0.90;;
10645;SDS011;5371;49.782;9.932;2024-02-23T12:38:35;2.37;;;1.03;;
10645;SDS011;5371;49.782;9.932;2024-02-23T12:41:02;4.40;;;1.07;;
10645;SDS011;5371;49.782;9.932;2024-02-23T12:43:30;2.80;;;0.90;;
10645;SDS011;5371;49.782;9.932;2024-02-23T12:45:57;4.13;;;1.00;;
10645;SDS011;5371;49.782;9.932;2024-02-23T12:48:24;4.13;;;1.30;;
10645;SDS011;5371;49.782;9.932;2024-02-23T12:50:51;1.63;;;0.83;;
10645;SDS011;5371;49.782;9.932;2024-02-23T12:53:31;3.57;;;1.13;;
10645;SDS011;5371;49.782;9.932;2024-02-23T12:56:00;3.40;;;1.10;;
10645;SDS011;5371;49.782;9.932;2024-02-23T12:58:27;6.07;;;1.27;;
10645;SDS011;5371;49.782;9.932;2024-02-23T13:00:55;3.73;;;1.23;;
10645;SDS011;5371;49.782;9.932;2024-02-23T13:03:23;4.30;;;1.23;;
10645;SDS011;5371;49.782;9.932;2024-02-23T13:05:50;5.27;;;1.43;;
10645;SDS011;5371;49.782;9.932;2024-02-23T13:08:17;4.97;;;1.20;;
10645;SDS011;5371;49.782;9.932;2024-02-23T13:10:46;2.50;;;0.90;;
10645;SDS011;5371;49.782;9.932;2024-02-23T13:13:12;3.40;;;0.60;;
10645;SDS011;5371;49.782;9.932;2024-02-23T13:15:42;2.70;;;1.07;;
10645;SDS011;5371;49.782;9.932;2024-02-23T13:18:09;3.87;;;1.07;;
10645;SDS011;5371;49.782;9.932;2024-02-23T13:20:37;3.17;;;0.70;;
10645;SDS011;5371;49.782;9.932;2024-02-23T13:23:04;4.57;;;1.03;;
10645;SDS011;5371;49.782;9.932;2024-02-23T13:25:33;2.13;;;0.90;;
10645;SDS011;5371;49.782;9.932;2024-02-23T13:28:03;3.97;;;1.00;;
10645;SDS011;5371;49.782;9.932;2024-02-23T13:30:30;1.80;;;1.00;;
10645;SDS011;5371;49.782;9.932;2024-02-23T13:32:58;3.57;;;1.23;;
10645;SDS011;5371;49.782;9.932;2024-02-23T13:35:25;4.77;;;1.00;;
10645;SDS011;5371;49.782;9.932;2024-02-23T13:37:53;6.97;;;1.10;;
10645;SDS011;5371;49.782;9.932;2024-02-23T13:40:20;1.63;;;0.93;;
10645;SDS011;5371;49.782;9.932;2024-02-23T13:42:47;1.90;;;0.90;;
10645;SDS011;5371;49.782;9.932;2024-02-23T13:45:17;4.57;;;0.93;;
10645;SDS011;5371;49.782;9.932;2024-02-23T13:47:44;5.77;;;0.97;;
10645;SDS011;5371;49.782;9.932;2024-02-23T13:50:22;3.70;;;1.10;;
10645;SDS011;5371;49.782;9.932;2024-02-23T13:52:49;5.77;;;1.23;;
10645;SDS011;5371;49.782;9.932;2024-02-23T13:55:16;4.60;;;1.23;;
10645;SDS011;5371;49.782;9.932;2024-02-23T13:57:43;2.37;;;1.00;;
10645;SDS011;5371;49.782;9.932;2024-02-23T14:00:10;3.43;;;1.20;;
10645;SDS011;5371;49.782;9.932;2024-02-23T14:02:40;3.37;;;1.00;;
10645;SDS011;5371;49.782;9.932;2024-02-23T14:05:07;2.97;;;1.10;;
10645;SDS011;5371;49.782;9.932;2024-02-23T14:07:34;2.70;;;1.17;;
10645;SDS011;5371;49.782;9.932;2024-02-23T14:10:02;3.40;;;1.13;;
10645;SDS011;5371;49.782;9.932;2024-02-23T14:12:29;2.70;;;1.10;;
10645;SDS011;5371;49.782;9.932;2024-02-23T14:14:56;2.60;;;0.93;;
10645;SDS011;5371;49.782;9.932;2024-02-23T14:17:23;4.83;;;1.03;;
10645;SDS011;5371;49.782;9.932;2024-02-23T14:19:51;4.53;;;1.27;;
10645;SDS011;5371;49.782;9.932;2024-02-23T14:22:18;3.47;;;1.10;;
10645;SDS011;5371;49.782;9.932;2024-02-23T14:24:45;3.03;;;1.27;;
10645;SDS011;5371;49.782;9.932;2024-02-23T14:27:13;2.23;;;1.10;;
10645;SDS011;5371;49.782;9.932;2024-02-23T14:29:41;5.57;;;1.20;;
10645;SDS011;5371;49.782;9.932;2024-02-23T14:32:08;3.37;;;1.20;;
10645;SDS011;5371;49.782;9.932;2024-02-23T14:34:35;3.03;;;1.03;;
10645;SDS011;5371;49.782;9.932;2024-02-23T14:37:04;2.33;;;0.90;;
10645;SDS011;5371;49.782;9.932;2024-02-23T14:39:32;1.90;;;0.80;;
10645;SDS011;5371;49.782;9.932;2024-02-23T14:42:00;5.03;;;0.97;;
10645;SDS011;5371;49.782;9.932;2024-02-23T14:44:27;2.73;;;1.03;;
10645;SDS011;5371;49.782;9.932;2024-02-23T14:46:54;2.77;;;0.90;;
10645;SDS011;5371;49.782;9.932;2024-02-23T14:49:21;3.60;;;1.20;;
10645;SDS011;5371;49.782;9.932;2024-02-23T14:51:49;2.03;;;1.10;;
10645;SDS011;5371;49.782;9.932;2024-02-23T14:54:17;4.17;;;1.43;;
10645;SDS011;5371;49.782;9.932;2024-02-23T14:56:44;1.67;;;0.90;;
10645;SDS011;5371;49.782;9.932;2024-02-23T14:59:12;4.77;;;1.40;;
10645;SDS011;5371;49.782;9.932;2024-02-23T15:01:39;2.10;;;1.03;;
10645;SDS011;5371;49.782;9.932;2024-02-23T15:04:07;4.03;;;1.03;;